createdAt,value
2023-05-23T00:01:59.069Z,9.60
2023-05-23T00:04:32.169Z,9.60
2023-05-23T00:07:01.348Z,9.50
2023-05-23T00:09:33.218Z,9.50
2023-05-23T00:12:05.599Z,9.40
2023-05-23T00:14:46.459Z,9.40
2023-05-23T00:17:25.164Z,9.40
2023-05-23T00:19:58.162Z,9.40
2023-05-23T00:22:27.296Z,9.30
2023-05-23T00:25:02.419Z,9.30
2023-05-23T00:27:41.586Z,9.20
2023-05-23T00:30:12.844Z,9.30
2023-05-23T00:32:44.963Z,9.20
2023-05-23T00:35:15.413Z,9.20
2023-05-23T00:37:50.681Z,9.20
2023-05-23T00:40:20.159Z,9.10
2023-05-23T00:42:49.883Z,9.10
2023-05-23T00:45:23.699Z,9.10
2023-05-23T00:47:53.068Z,9.10
2023-05-23T00:50:29.914Z,9.10
2023-05-23T00:53:02.289Z,9.00
2023-05-23T00:55:32.022Z,9.00
2023-05-23T00:58:10.768Z,9.00
2023-05-23T01:00:41.534Z,8.90
2023-05-23T01:03:26.117Z,8.90
2023-05-23T01:05:55.453Z,8.90
2023-05-23T01:08:24.471Z,8.80
2023-05-23T01:10:56.529Z,8.80
2023-05-23T01:13:36.265Z,8.80
2023-05-23T01:16:12.018Z,8.80
2023-05-23T01:18:54.987Z,8.80
2023-05-23T01:21:26.204Z,9.00
2023-05-23T01:24:38.008Z,8.70
2023-05-23T01:27:17.969Z,8.70
2023-05-23T01:29:56.697Z,8.60
2023-05-23T01:32:27.423Z,8.60
2023-05-23T01:34:56.584Z,8.50
2023-05-23T01:37:25.531Z,8.50
2023-05-23T01:39:57.512Z,8.40
2023-05-23T01:42:29.727Z,8.40
2023-05-23T01:45:00.172Z,8.40
2023-05-23T01:47:32.223Z,8.40
2023-05-23T01:50:04.943Z,8.30
2023-05-23T01:52:35.394Z,8.30
2023-05-23T01:55:12.460Z,8.30
2023-05-23T01:57:56.801Z,8.20
2023-05-23T02:00:27.498Z,8.20
2023-05-23T02:02:57.073Z,8.10
2023-05-23T02:05:29.302Z,8.10
2023-05-23T02:08:05.548Z,8.10
2023-05-23T02:10:46.536Z,8.00
2023-05-23T02:13:23.609Z,8.10
2023-05-23T02:15:53.767Z,8.10
2023-05-23T02:18:22.723Z,8.00
2023-05-23T02:20:52.925Z,8.00
2023-05-23T02:23:21.701Z,8.00
2023-05-23T02:25:50.383Z,8.00
2023-05-23T02:28:19.034Z,8.00
2023-05-23T02:30:52.430Z,8.00
2023-05-23T02:33:24.293Z,7.90
2023-05-23T02:35:53.385Z,7.90
2023-05-23T02:38:27.325Z,7.90
2023-05-23T02:41:03.333Z,7.90
2023-05-23T02:43:38.712Z,7.90
2023-05-23T02:46:09.503Z,7.90
2023-05-23T02:48:38.927Z,8.00
2023-05-23T02:51:11.108Z,8.00
2023-05-23T02:53:40.818Z,8.00
2023-05-23T02:56:10.688Z,8.00
2023-05-23T02:58:40.252Z,8.10
2023-05-23T03:01:14.181Z,8.10
2023-05-23T03:03:45.147Z,8.20
2023-05-23T03:06:17.663Z,8.20
2023-05-23T03:08:47.083Z,8.30
2023-05-23T03:11:16.847Z,8.30
2023-05-23T03:13:45.517Z,8.40
2023-05-23T03:16:17.209Z,8.40
2023-05-23T03:18:46.088Z,8.40
2023-05-23T03:21:14.979Z,8.40
2023-05-23T03:23:44.152Z,8.50
2023-05-23T03:26:13.277Z,8.50
2023-05-23T03:28:42.016Z,8.60
2023-05-23T03:31:10.675Z,8.70
2023-05-23T03:33:40.885Z,8.80
2023-05-23T03:36:09.989Z,8.90
2023-05-23T03:38:38.659Z,9.00
2023-05-23T03:41:07.526Z,9.00
2023-05-23T03:43:36.227Z,9.10
2023-05-23T03:46:05.023Z,9.20
2023-05-23T03:48:33.818Z,9.30
2023-05-23T03:51:04.185Z,9.50
2023-05-23T03:53:33.936Z,9.60
2023-05-23T03:56:03.892Z,9.90
2023-05-23T03:58:32.602Z,10.00
2023-05-23T04:01:02.287Z,10.40
2023-05-23T04:03:34.071Z,10.90
2023-05-23T04:06:04.331Z,11.30
2023-05-23T04:08:34.201Z,11.70
2023-05-23T04:11:03.327Z,12.60
2023-05-23T04:13:32.468Z,14.60
2023-05-23T04:16:05.956Z,16.60
2023-05-23T04:18:34.846Z,18.60
2023-05-23T04:21:05.270Z,20.30
2023-05-23T04:23:33.868Z,21.60
2023-05-23T04:26:02.576Z,22.60
2023-05-23T04:28:31.661Z,23.20
2023-05-23T04:31:00.327Z,23.80
2023-05-23T04:33:30.771Z,24.30
2023-05-23T04:35:59.443Z,24.60
2023-05-23T04:38:29.868Z,24.70
2023-05-23T04:40:58.884Z,24.70
2023-05-23T04:43:29.580Z,24.20
2023-05-23T04:45:58.501Z,23.40
2023-05-23T04:48:27.859Z,22.30
2023-05-23T04:50:56.542Z,21.10
2023-05-23T04:53:25.102Z,19.90
2023-05-23T04:55:55.371Z,19.00
2023-05-23T04:58:24.123Z,18.50
2023-05-23T05:00:52.882Z,18.40
2023-05-23T05:03:22.039Z,18.10
2023-05-23T05:05:50.898Z,17.70
2023-05-23T05:08:21.039Z,17.40
2023-05-23T05:10:49.937Z,17.10
2023-05-23T05:13:19.994Z,16.90
2023-05-23T05:15:53.137Z,16.70
2023-05-23T05:18:21.796Z,16.60
2023-05-23T05:20:50.529Z,16.50
2023-05-23T05:23:19.268Z,16.40
2023-05-23T05:25:48.131Z,16.40
2023-05-23T05:28:16.831Z,16.40
2023-05-23T05:30:46.855Z,16.40
2023-05-23T05:33:15.834Z,16.40
2023-05-23T05:35:44.604Z,16.50
2023-05-23T05:38:13.750Z,16.50
2023-05-23T05:40:42.685Z,16.60
2023-05-23T05:43:11.570Z,16.70
2023-05-23T05:45:40.313Z,16.80
2023-05-23T05:48:10.535Z,16.80
2023-05-23T05:50:45.503Z,17.00
2023-05-23T05:53:14.904Z,17.00
2023-05-23T05:55:43.514Z,17.10
2023-05-23T05:58:12.185Z,17.20
2023-05-23T06:00:44.003Z,17.20
2023-05-23T06:03:14.590Z,17.40
2023-05-23T06:05:43.533Z,17.40
2023-05-23T06:08:12.220Z,17.50
2023-05-23T06:10:40.998Z,17.60
2023-05-23T06:13:10.151Z,17.70
2023-05-23T06:15:39.340Z,17.80
2023-05-23T06:18:08.553Z,17.90
2023-05-23T06:20:38.839Z,18.00
2023-05-23T06:23:09.012Z,18.00
2023-05-23T06:25:37.732Z,18.10
2023-05-23T06:28:06.694Z,17.90
2023-05-23T06:30:37.601Z,18.30
2023-05-23T06:33:06.473Z,18.40
2023-05-23T06:35:35.193Z,18.40
2023-05-23T06:38:05.418Z,18.50
2023-05-23T06:40:34.050Z,18.50
2023-05-23T06:43:02.743Z,18.50
2023-05-23T06:45:31.444Z,18.60
2023-05-23T06:48:01.494Z,18.70
2023-05-23T06:50:30.234Z,18.90
2023-05-23T06:52:58.845Z,18.90
2023-05-23T06:55:29.408Z,19.10
2023-05-23T06:57:58.004Z,19.20
2023-05-23T07:00:26.707Z,19.20
2023-05-23T07:02:55.473Z,19.30
2023-05-23T07:05:24.162Z,19.40
2023-05-23T07:07:52.810Z,19.40
2023-05-23T07:10:21.555Z,19.50
2023-05-23T07:12:51.751Z,19.60
2023-05-23T07:15:20.355Z,19.70
2023-05-23T07:17:49.090Z,19.80
2023-05-23T07:20:17.893Z,19.80
2023-05-23T07:22:46.528Z,19.90
2023-05-23T07:25:15.227Z,20.00
2023-05-23T07:27:43.847Z,20.10
2023-05-23T07:30:14.610Z,20.10
2023-05-23T07:32:43.387Z,20.10
2023-05-23T07:35:12.074Z,20.20
2023-05-23T07:37:40.762Z,20.20
2023-05-23T07:40:10.691Z,20.30
2023-05-23T07:42:39.350Z,20.30
2023-05-23T07:45:09.358Z,20.40
2023-05-23T07:47:39.761Z,20.50
2023-05-23T07:50:10.104Z,20.50
2023-05-23T07:52:39.348Z,20.60
2023-05-23T07:55:09.056Z,20.60
2023-05-23T07:57:37.761Z,20.70
2023-05-23T08:00:07.421Z,20.80
2023-05-23T08:02:36.075Z,20.90
2023-05-23T08:05:07.297Z,20.90
2023-05-23T08:07:36.180Z,20.90
2023-05-23T08:10:05.063Z,21.00
2023-05-23T08:12:34.047Z,21.10
2023-05-23T08:15:02.694Z,21.20
2023-05-23T08:17:31.401Z,21.30
2023-05-23T08:20:01.494Z,21.30
2023-05-23T08:22:31.786Z,21.30
2023-05-23T08:25:00.539Z,21.40
2023-05-23T08:27:30.447Z,21.40
2023-05-23T08:30:00.062Z,21.50
2023-05-23T08:32:28.937Z,21.50
2023-05-23T08:34:57.613Z,21.60
2023-05-23T08:37:26.524Z,21.60
2023-05-23T08:39:56.721Z,21.70
2023-05-23T08:42:25.621Z,21.60
2023-05-23T08:44:55.023Z,21.60
2023-05-23T08:47:24.166Z,21.60
2023-05-23T08:49:56.631Z,21.70
2023-05-23T08:52:26.884Z,21.80
2023-05-23T08:54:57.107Z,21.80
2023-05-23T08:57:27.068Z,21.80
2023-05-23T08:59:57.161Z,21.80
2023-05-23T09:02:26.904Z,21.90
2023-05-23T09:04:56.073Z,22.00
2023-05-23T09:07:24.874Z,22.00
2023-05-23T09:09:53.660Z,22.10
2023-05-23T09:12:23.827Z,22.00
2023-05-23T09:14:52.985Z,22.10
2023-05-23T09:17:22.712Z,22.20
2023-05-23T09:19:51.960Z,22.40
2023-05-23T09:22:27.255Z,22.50
2023-05-23T09:24:56.910Z,22.60
2023-05-23T09:27:27.230Z,22.70
2023-05-23T09:29:55.849Z,22.80
2023-05-23T09:32:24.565Z,23.00
2023-05-23T09:34:58.418Z,23.30
2023-05-23T09:37:34.343Z,23.50
2023-05-23T09:40:07.820Z,23.70
2023-05-23T09:42:43.219Z,23.60
2023-05-23T09:45:13.024Z,23.60
2023-05-23T09:47:41.793Z,23.70
2023-05-23T09:50:14.898Z,23.80
2023-05-23T09:52:43.405Z,24.00
2023-05-23T09:55:12.854Z,24.20
2023-05-23T09:57:44.286Z,24.30
2023-05-23T10:00:14.415Z,24.30
2023-05-23T10:03:08.375Z,24.40
2023-05-23T10:05:40.139Z,24.50
2023-05-23T10:08:12.404Z,24.70
2023-05-23T10:11:30.162Z,24.70
2023-05-23T10:14:02.482Z,24.70
2023-05-23T10:16:40.522Z,24.60
2023-05-23T10:19:14.838Z,24.50
2023-05-23T10:21:50.598Z,24.40
2023-05-23T10:24:20.419Z,24.40
2023-05-23T10:26:50.392Z,24.20
2023-05-23T10:29:20.659Z,24.10
2023-05-23T10:31:49.913Z,24.00
2023-05-23T10:34:27.048Z,24.10
2023-05-23T10:37:02.115Z,24.10
2023-05-23T10:39:44.712Z,24.30
2023-05-23T10:42:19.174Z,24.50
2023-05-23T10:44:49.243Z,24.70
2023-05-23T10:47:28.338Z,24.90
2023-05-23T10:49:57.523Z,25.10
2023-05-23T10:52:27.935Z,25.30
2023-05-23T10:54:57.555Z,25.40
2023-05-23T10:57:29.097Z,25.40
2023-05-23T10:59:59.151Z,25.50
2023-05-23T11:02:29.697Z,25.70
2023-05-23T11:05:24.023Z,25.90
2023-05-23T11:08:12.242Z,26.00
2023-05-23T11:10:55.703Z,26.20
2023-05-23T11:13:25.265Z,26.30
2023-05-23T11:15:55.450Z,26.40
2023-05-23T11:18:26.186Z,26.40
2023-05-23T11:21:23.892Z,26.20
2023-05-23T11:23:57.080Z,26.00
2023-05-23T11:26:32.509Z,25.90
2023-05-23T11:29:03.493Z,25.80
2023-05-23T11:31:40.735Z,25.70
2023-05-23T11:34:09.474Z,25.60
2023-05-23T11:36:38.886Z,25.40
2023-05-23T11:39:13.572Z,25.30
2023-05-23T11:41:44.734Z,25.10
2023-05-23T11:44:14.184Z,25.00
2023-05-23T11:47:02.161Z,25.00
2023-05-23T11:49:32.887Z,25.10
2023-05-23T11:52:03.187Z,25.20
2023-05-23T11:54:32.325Z,25.30
2023-05-23T11:57:01.048Z,25.40
2023-05-23T11:59:30.112Z,25.40
2023-05-23T12:02:00.159Z,25.40
2023-05-23T12:04:29.460Z,25.30
2023-05-23T12:06:58.217Z,25.40
2023-05-23T12:09:27.059Z,25.40
2023-05-23T12:11:55.846Z,25.60
2023-05-23T12:14:51.588Z,25.80
2023-05-23T12:17:22.704Z,26.00
2023-05-23T12:19:53.117Z,26.20
2023-05-23T12:22:25.928Z,26.20
2023-05-23T12:24:56.216Z,26.20
2023-05-23T12:27:31.792Z,26.10
2023-05-23T12:30:10.826Z,26.00
2023-05-23T12:32:42.272Z,25.80
2023-05-23T12:35:13.430Z,25.60
2023-05-23T12:37:43.183Z,25.40
2023-05-23T12:40:14.735Z,25.30
2023-05-23T12:42:55.871Z,25.30
2023-05-23T12:48:37.520Z,25.30
2023-05-23T12:51:06.892Z,25.30
2023-05-23T12:53:36.778Z,25.30
2023-05-23T12:56:05.665Z,25.20
2023-05-23T12:58:34.656Z,25.20
2023-05-23T13:01:04.457Z,25.10
2023-05-23T13:03:37.659Z,25.10
2023-05-23T13:06:07.507Z,25.20
2023-05-23T13:08:36.249Z,25.20
2023-05-23T13:11:05.730Z,25.20
2023-05-23T13:13:34.394Z,25.40
2023-05-23T13:16:03.483Z,25.40
2023-05-23T13:18:32.421Z,25.50
2023-05-23T13:21:02.623Z,25.70
2023-05-23T13:23:31.201Z,25.80
2023-05-23T13:26:00.163Z,25.80
2023-05-23T13:28:28.957Z,25.90
2023-05-23T13:30:57.664Z,26.00
2023-05-23T13:33:26.415Z,26.00
2023-05-23T13:35:55.121Z,26.10
2023-05-23T13:38:27.911Z,26.10
2023-05-23T13:40:56.769Z,26.20
2023-05-23T13:43:26.012Z,26.20
2023-05-23T13:45:57.614Z,26.10
2023-05-23T13:48:26.730Z,26.00
2023-05-23T13:50:56.706Z,25.90
2023-05-23T13:53:28.011Z,25.60
2023-05-23T13:55:56.924Z,25.40
2023-05-23T13:58:25.769Z,25.30
2023-05-23T14:00:54.761Z,25.10
2023-05-23T14:03:24.868Z,25.00
2023-05-23T14:05:53.864Z,24.90
2023-05-23T14:08:22.816Z,24.80
2023-05-23T14:10:53.479Z,24.80
2023-05-23T14:13:23.418Z,24.80
2023-05-23T14:15:53.651Z,24.90
2023-05-23T14:18:22.604Z,25.00
2023-05-23T14:20:51.426Z,25.10
2023-05-23T14:23:20.103Z,25.20
2023-05-23T14:25:48.978Z,25.20
2023-05-23T14:28:19.304Z,25.20
2023-05-23T14:30:48.248Z,25.10
2023-05-23T14:33:17.204Z,25.20
2023-05-23T14:35:46.180Z,25.20
2023-05-23T14:38:15.309Z,25.30
2023-05-23T14:40:44.619Z,25.40
2023-05-23T14:43:13.818Z,25.40
2023-05-23T14:45:44.340Z,25.40
2023-05-23T14:48:13.368Z,25.50
2023-05-23T14:50:42.853Z,25.60
2023-05-23T14:53:11.558Z,25.80
2023-05-23T14:55:40.556Z,26.00
2023-05-23T14:58:09.514Z,26.40
2023-05-23T15:00:38.714Z,27.00
2023-05-23T15:03:09.067Z,27.50
2023-05-23T15:05:37.868Z,27.70
2023-05-23T15:08:06.794Z,28.00
2023-05-23T15:10:35.734Z,28.20
2023-05-23T15:13:04.779Z,28.40
2023-05-23T15:15:37.702Z,28.60
2023-05-23T15:18:10.486Z,28.70
2023-05-23T15:20:39.462Z,28.70
2023-05-23T15:23:08.355Z,28.60
2023-05-23T15:25:48.037Z,28.60
2023-05-23T15:28:18.504Z,28.50
2023-05-23T15:30:47.467Z,28.30
2023-05-23T15:33:17.728Z,28.50
2023-05-23T15:35:46.669Z,28.80
2023-05-23T15:38:17.105Z,29.20
2023-05-23T15:40:53.027Z,29.30
2023-05-23T15:43:22.274Z,28.90
2023-05-23T15:45:52.795Z,28.50
2023-05-23T15:48:23.311Z,28.20
2023-05-23T15:50:52.390Z,27.90
2023-05-23T15:53:22.885Z,27.60
2023-05-23T15:55:51.838Z,27.50
2023-05-23T15:58:20.660Z,27.30
2023-05-23T16:00:49.337Z,27.20
2023-05-23T16:03:18.099Z,27.10
2023-05-23T16:05:48.505Z,26.90
2023-05-23T16:08:17.164Z,26.70
2023-05-23T16:10:45.835Z,26.70
2023-05-23T16:15:43.431Z,26.60
2023-05-23T16:18:12.238Z,26.60
2023-05-23T16:20:40.948Z,26.50
2023-05-23T16:23:10.954Z,26.50
2023-05-23T16:25:40.154Z,26.40
2023-05-23T16:28:09.031Z,26.30
2023-05-23T16:30:37.659Z,26.10
2023-05-23T16:33:06.927Z,26.00
2023-05-23T16:35:35.816Z,25.90
2023-05-23T16:38:04.440Z,25.80
2023-05-23T16:40:34.496Z,25.70
2023-05-23T16:43:04.374Z,25.40
2023-05-23T16:45:33.271Z,25.30
2023-05-23T16:48:02.251Z,25.10
2023-05-23T16:50:30.973Z,24.90
2023-05-23T16:52:59.592Z,24.80
2023-05-23T16:55:28.152Z,24.60
2023-05-23T16:57:58.460Z,24.40
2023-05-23T17:00:28.757Z,24.20
2023-05-23T17:02:57.416Z,24.00
2023-05-23T17:05:26.999Z,23.80
2023-05-23T17:07:55.796Z,23.60
2023-05-23T17:10:24.458Z,23.40
2023-05-23T17:12:53.027Z,23.20
2023-05-23T17:15:23.091Z,23.10
2023-05-23T17:17:53.847Z,22.90
2023-05-23T17:20:25.482Z,22.70
2023-05-23T17:22:54.201Z,22.60
2023-05-23T17:25:22.960Z,22.40
2023-05-23T17:27:51.729Z,22.40
2023-05-23T17:30:21.067Z,22.20
2023-05-23T17:32:51.620Z,22.20
2023-05-23T17:35:20.609Z,22.10
2023-05-23T17:37:49.276Z,22.00
2023-05-23T17:40:18.066Z,21.90
2023-05-23T17:42:47.186Z,21.80
2023-05-23T17:45:16.200Z,21.70
2023-05-23T17:47:46.297Z,21.70
2023-05-23T17:50:16.916Z,21.60
2023-05-23T17:52:46.127Z,21.50
2023-05-23T17:55:14.815Z,21.40
2023-05-23T17:57:43.600Z,21.30
2023-05-23T18:00:13.489Z,21.30
2023-05-23T18:02:42.175Z,21.20
2023-05-23T18:05:11.536Z,21.00
2023-05-23T18:07:42.951Z,21.00
2023-05-23T18:10:13.069Z,20.90
2023-05-23T18:12:42.176Z,20.80
2023-05-23T18:15:11.533Z,20.60
2023-05-23T18:17:40.337Z,20.50
2023-05-23T18:20:10.216Z,20.40
2023-05-23T18:22:38.887Z,20.40
2023-05-23T18:25:10.125Z,20.30
2023-05-23T18:27:38.747Z,20.20
2023-05-23T18:30:08.774Z,20.10
2023-05-23T18:32:37.437Z,20.00
2023-05-23T18:35:06.951Z,19.90
2023-05-23T18:37:35.785Z,19.90
2023-05-23T18:40:04.528Z,19.90
2023-05-23T18:42:34.512Z,19.80
2023-05-23T18:45:03.186Z,19.80
2023-05-23T18:47:31.945Z,19.80
2023-05-23T18:50:01.215Z,19.70
2023-05-23T18:52:30.949Z,19.70
2023-05-23T18:54:59.562Z,19.70
2023-05-23T18:57:28.923Z,19.60
2023-05-23T18:59:59.201Z,19.50
2023-05-23T19:02:28.239Z,19.40
2023-05-23T19:04:56.865Z,19.50
2023-05-23T19:07:25.656Z,19.40
2023-05-23T19:09:54.341Z,19.40
2023-05-23T19:12:22.985Z,19.30
2023-05-23T19:14:51.609Z,19.30
2023-05-23T19:17:21.624Z,19.30
2023-05-23T19:19:50.440Z,19.20
2023-05-23T19:22:19.020Z,19.20
2023-05-23T19:24:49.514Z,19.20
2023-05-23T19:27:18.219Z,19.10
2023-05-23T19:29:46.859Z,19.10
2023-05-23T19:32:15.760Z,19.00
2023-05-23T19:34:46.759Z,18.90
2023-05-23T19:37:15.836Z,18.80
2023-05-23T19:39:47.035Z,18.80
2023-05-23T19:42:15.649Z,18.80
2023-05-23T19:44:45.121Z,18.80
2023-05-23T19:47:13.732Z,18.70
2023-05-23T19:49:42.302Z,18.60
2023-05-23T19:52:12.358Z,18.60
2023-05-23T19:54:41.233Z,18.50
2023-05-23T19:57:09.874Z,18.50
2023-05-23T19:59:38.543Z,18.50
2023-05-23T20:02:07.237Z,18.50
2023-05-23T20:04:35.917Z,18.40
2023-05-23T20:07:04.823Z,18.30
2023-05-23T20:09:34.929Z,18.30
2023-05-23T20:12:03.641Z,18.30
2023-05-23T20:14:32.811Z,18.30
2023-05-23T20:17:01.513Z,18.20
2023-05-23T20:19:30.254Z,18.20
2023-05-23T20:21:59.006Z,18.10
2023-05-23T20:24:30.578Z,18.10
2023-05-23T20:27:01.014Z,18.00
2023-05-23T20:29:29.877Z,18.00
2023-05-23T20:31:58.955Z,17.90
2023-05-23T20:34:27.566Z,17.90
2023-05-23T20:36:56.197Z,17.90
2023-05-23T20:39:25.407Z,17.80
2023-05-23T20:41:54.967Z,17.80
2023-05-23T20:44:25.092Z,17.80
2023-05-23T20:46:54.391Z,17.70
2023-05-23T20:49:23.616Z,17.70
2023-05-23T20:51:52.299Z,17.70
2023-05-23T20:54:21.439Z,17.60
2023-05-23T20:56:52.824Z,17.60
2023-05-23T20:59:21.513Z,17.60
2023-05-23T21:01:51.865Z,17.50
2023-05-23T21:04:20.595Z,17.40
2023-05-23T21:06:49.440Z,17.40
2023-05-23T21:09:18.350Z,17.40
2023-05-23T21:11:47.343Z,17.40
2023-05-23T21:14:15.998Z,17.40
2023-05-23T21:16:44.907Z,17.40
2023-05-23T21:19:15.451Z,17.40
2023-05-23T21:21:44.492Z,17.40
2023-05-23T21:24:14.495Z,17.30
2023-05-23T21:26:43.804Z,17.30
2023-05-23T21:29:12.591Z,17.30
2023-05-23T21:31:42.124Z,17.30
2023-05-23T21:34:23.262Z,17.30
2023-05-23T21:36:54.903Z,17.20
2023-05-23T21:39:23.551Z,17.20
2023-05-23T21:41:52.557Z,17.20
2023-05-23T21:44:21.469Z,17.20
2023-05-23T21:46:50.289Z,17.10
2023-05-23T21:49:19.187Z,17.10
2023-05-23T21:51:47.902Z,17.10
2023-05-23T21:54:18.058Z,17.10
2023-05-23T21:56:46.869Z,17.10
2023-05-23T21:59:15.653Z,17.00
2023-05-23T22:01:44.298Z,17.00
2023-05-23T22:04:12.908Z,17.00
2023-05-23T22:06:41.359Z,17.10
2023-05-23T22:09:12.637Z,17.00
2023-05-23T22:11:42.810Z,17.00
2023-05-23T22:14:11.896Z,17.00
2023-05-23T22:16:45.989Z,17.00
2023-05-23T22:19:18.197Z,17.10
2023-05-23T22:21:49.582Z,17.00
2023-05-23T22:24:18.178Z,17.00
2023-05-23T22:26:48.118Z,17.00
2023-05-23T22:29:16.696Z,17.10
2023-05-23T22:31:46.940Z,17.00
2023-05-23T22:34:16.257Z,17.00
2023-05-23T22:36:44.984Z,17.00
2023-05-23T22:39:13.884Z,17.00
2023-05-23T22:41:42.521Z,16.90
2023-05-23T22:44:23.679Z,17.00
2023-05-23T22:47:17.770Z,16.90
2023-05-23T22:49:46.562Z,16.90
2023-05-23T22:52:18.341Z,16.90
2023-05-23T22:54:46.970Z,17.00
2023-05-23T22:57:15.396Z,16.90
2023-05-23T22:59:45.308Z,16.90
2023-05-23T23:02:13.802Z,16.90
2023-05-23T23:04:44.415Z,16.80
2023-05-23T23:07:12.934Z,16.80
2023-05-23T23:09:41.387Z,16.70
2023-05-23T23:12:09.871Z,16.70
2023-05-23T23:14:38.353Z,16.70
2023-05-23T23:17:08.317Z,16.70
2023-05-23T23:19:36.773Z,16.70
2023-05-23T23:22:05.598Z,16.70
2023-05-23T23:24:34.129Z,16.60
2023-05-23T23:27:02.626Z,16.60
2023-05-23T23:29:31.500Z,16.60
2023-05-23T23:32:00.126Z,16.60
2023-05-23T23:34:30.265Z,16.50
2023-05-23T23:36:58.968Z,16.50
2023-05-23T23:39:27.548Z,16.50
2023-05-23T23:41:56.160Z,16.40
2023-05-23T23:44:24.742Z,16.40
2023-05-23T23:46:53.401Z,16.30
2023-05-23T23:49:22.162Z,16.20
2023-05-23T23:51:52.963Z,16.30
2023-05-23T23:54:21.609Z,16.30
2023-05-23T23:56:50.275Z,16.30
2023-05-23T23:59:18.911Z,16.30
